createdAt,value
2018-02-21T00:00:03.186Z,-1.2
2018-02-21T00:15:02.539Z,-1.2
2018-02-21T00:30:02.874Z,-1.3
2018-02-21T00:45:03.150Z,-1.4
2018-02-21T01:00:02.416Z,-1.5
2018-02-21T01:15:02.624Z,-1.6
2018-02-21T01:30:10.249Z,-1.8
2018-02-21T01:45:02.478Z,-1.7
2018-02-21T02:00:02.724Z,-1.8
2018-02-21T02:15:02.932Z,-1.7
2018-02-21T02:30:02.233Z,-1.7
2018-02-21T02:45:02.564Z,-1.6
2018-02-21T03:00:02.822Z,-1.6
2018-02-21T03:15:03.131Z,-1.7
2018-02-21T03:30:02.544Z,-1.8
2018-02-21T03:45:02.792Z,-1.9
2018-02-21T04:00:03.000Z,-2.2
2018-02-21T04:15:02.511Z,-2.3
2018-02-21T04:30:02.913Z,-2.5
2018-02-21T04:45:03.250Z,-2.6
2018-02-21T05:00:02.516Z,-2.7
2018-02-21T05:15:49.285Z,-2.5
2018-02-21T05:30:02.811Z,-2.5
2018-02-21T05:45:03.017Z,-2.4
2018-02-21T06:00:02.285Z,-2.4
2018-02-21T06:15:02.539Z,-2.4
2018-02-21T06:30:02.902Z,-2.4
2018-02-21T06:45:03.221Z,-2.3
2018-02-21T07:00:02.776Z,-2.2
2018-02-21T07:15:03.023Z,-2.2
2018-02-21T07:30:02.445Z,-2.2
2018-02-21T07:45:02.684Z,-1.9
2018-02-21T08:00:02.936Z,-1.8
2018-02-21T08:15:03.260Z,-1.4
2018-02-21T08:30:02.639Z,-1.1
2018-02-21T08:45:02.900Z,-1.3
2018-02-21T09:00:03.161Z,-0.9
2018-02-21T09:15:02.432Z,-0.8
2018-02-21T09:30:02.764Z,-0.5
2018-02-21T09:45:03.101Z,0
2018-02-21T10:00:02.493Z,-0.1
2018-02-21T10:15:02.735Z,0.5
2018-02-21T10:30:03.127Z,0.5
2018-02-21T10:45:02.401Z,0.8
2018-02-21T11:00:02.953Z,0.9
2018-02-21T11:15:03.233Z,1
2018-02-21T11:30:02.602Z,1.4
2018-02-21T11:45:02.820Z,2.2
2018-02-21T12:00:03.111Z,1.8
2018-02-21T12:15:02.392Z,1.7
2018-02-21T12:30:02.702Z,2.9
2018-02-21T12:45:02.927Z,2.2
2018-02-21T13:00:03.209Z,1.8
2018-02-21T13:15:02.325Z,1.8
2018-02-21T13:30:02.617Z,1.8
2018-02-21T13:45:02.929Z,1.6
2018-02-21T14:00:03.230Z,1.6
2018-02-21T14:15:02.594Z,1.7
2018-02-21T14:30:02.897Z,2
2018-02-21T14:45:02.210Z,1.9
2018-02-21T15:00:02.442Z,1.8
2018-02-21T15:15:02.714Z,1.8
2018-02-21T15:30:03.019Z,1.8
2018-02-21T15:45:02.337Z,1.6
2018-02-21T16:00:02.601Z,1.4
2018-02-21T16:15:02.836Z,1.2
2018-02-21T16:30:03.149Z,0.9
2018-02-21T16:45:02.395Z,0.7
2018-02-21T17:00:02.684Z,0.4
2018-02-21T17:15:02.886Z,0.4
2018-02-21T17:30:02.233Z,0.2
2018-02-21T17:45:02.470Z,0.1
2018-02-21T18:00:02.798Z,0.1
2018-02-21T18:15:03.005Z,0.1
2018-02-21T18:30:02.382Z,0.1
2018-02-21T18:45:02.609Z,0
2018-02-21T19:00:02.881Z,-0.1
2018-02-21T19:15:03.135Z,-0.2
2018-02-21T19:30:02.433Z,-0.3
2018-02-21T19:45:02.689Z,-0.4
2018-02-21T20:00:02.918Z,-0.5
2018-02-21T20:15:03.205Z,-0.6
2018-02-21T20:30:02.565Z,-0.7
2018-02-21T20:45:02.801Z,-0.7
2018-02-21T21:00:03.105Z,-0.8
2018-02-21T21:15:02.360Z,-0.8
2018-02-21T21:30:02.680Z,-0.8
2018-02-21T21:45:02.892Z,-0.9
2018-02-21T22:00:03.224Z,-0.9
2018-02-21T22:15:02.466Z,-0.9
2018-02-21T22:30:02.814Z,-1
2018-02-21T22:45:03.071Z,-0.9
2018-02-21T23:00:02.309Z,-1
2018-02-21T23:15:02.585Z,-1.1
2018-02-21T23:30:02.978Z,-1.1
2018-02-21T23:45:02.273Z,-1.2
